Latest Weather Observations for Wilsons Promontory

IDV60801

Issued at 8:35 pm EDT Saturday 29 November 2014 (issued every 30 minutes, with the page automatically refreshed every 10 minutes)

About weather observations | Map of weather stations | Latest weather observations for VIC | Other Formats
Station Details ID: 085096 Name: WILSONS PROMONTORY LIGHTHOUSE Lat: -39.13 Lon: 146.42 Height: 95.0 m
Data from the previous 72 hours. | See also: Recent months at Wilsons Promontory
Date/Time
EDT
Temp
°C
App
Temp
°C
Dew
Point
Rel
Hum
%
Delta-T
°C
Wind Press
QNH
hPa
Press
MSL
hPa
Rain
since 9 am
mm
Dir
 
Spd
km/h
Gust
km/h
Spd
kts
Gust
kts
29/08:30pm 16.0 10.1 14.7 92 0.7 NE 39 44 21 24 1014.0 - 0.0
29/08:00pm 16.3 11.7 14.7 90 0.9 NE 32 39 17 21 1014.0 - 0.0
29/07:30pm 16.2 12.4 14.6 90 0.9 NE 28 35 15 19 1014.3 - 0.0
29/07:00pm 16.2 12.7 14.4 89 1.0 NE 26 32 14 17 1014.4 - 0.0
29/06:30pm 16.2 13.4 14.4 89 1.0 NE 22 28 12 15 1014.3 - 0.0
29/06:00pm 16.3 13.5 14.3 88 1.1 NE 22 30 12 16 1014.3 1014.3 0.0
29/05:30pm 16.6 13.8 14.4 87 1.3 ENE 22 26 12 14 1014.3 - 0.0
29/05:00pm 16.8 13.6 14.3 85 1.4 NE 24 28 13 15 1014.4 - 0.0
29/04:30pm 17.0 14.7 14.1 83 1.7 NE 19 24 10 13 1014.6 - 0.0
29/04:00pm 17.7 14.9 14.4 81 1.9 NE 22 28 12 15 1014.7 - 0.0
29/03:30pm 17.8 15.2 13.9 78 2.2 NE 20 26 11 14 1014.9 - 0.0
29/03:00pm 17.4 14.7 13.5 78 2.2 NE 20 24 11 13 1015.1 1015.1 0.0
29/02:30pm 18.5 16.0 13.6 73 2.8 NE 19 24 10 13 1015.4 - 0.0
29/02:00pm 18.4 15.8 13.3 72 2.9 NE 19 24 10 13 1015.9 - 0.0
29/01:30pm 18.5 15.9 13.1 71 3.1 NNE 19 28 10 15 1015.9 - 0.0
29/01:00pm 18.5 16.0 13.4 72 2.9 NNE 19 24 10 13 1016.4 - 0.0
29/12:30pm 17.3 13.6 12.6 74 2.6 NE 24 30 13 16 1016.3 - 0.0
29/12:00pm 17.1 12.9 12.4 74 2.6 NE 26 28 14 15 1016.3 1016.3 0.0
29/11:30am 17.3 14.2 12.2 72 2.8 NE 20 28 11 15 1016.7 - 0.0
29/11:00am 17.2 13.3 12.1 72 2.8 NE 24 30 13 16 1017.0 - 0.0
29/10:30am 16.8 13.2 11.9 73 2.7 NE 22 28 12 15 1017.2 - 0.0
29/10:00am 16.8 12.5 12.1 74 2.6 NE 26 30 14 16 1017.4 - 0.0
29/09:30am 16.5 12.5 11.9 74 2.5 NE 24 28 13 15 1017.7 - 0.0
29/09:00am 16.2 12.6 12.0 76 2.3 ENE 22 26 12 14 1018.2 1018.2 0.0
29/08:30am 15.8 11.9 12.0 78 2.1 ENE 24 28 13 15 1018.1 - 0.0
29/08:00am 15.5 12.0 12.1 80 1.9 ENE 22 26 12 14 1018.0 - 0.0
29/07:30am 14.8 11.9 12.3 85 1.4 ENE 19 20 10 11 1018.0 - 0.0
29/07:00am 13.7 11.4 11.7 88 1.1 ENE 15 19 8 10 1018.1 - 0.0
29/06:00am 13.1 11.0 11.3 89 1.0 NE 13 17 7 9 1017.9 1017.9 0.0
29/05:30am 12.9 10.8 11.1 89 1.0 NE 13 17 7 9 1017.8 - 0.0
29/05:00am 13.0 11.3 11.2 89 1.0 ENE 11 13 6 7 1017.6 - 0.0
29/04:30am 12.8 10.6 10.9 88 1.0 NE 13 17 7 9 1017.1 - 0.0
29/04:00am 12.6 10.0 10.7 88 1.0 NE 15 17 8 9 1017.1 - 0.0
29/03:30am 12.2 9.5 10.3 88 1.0 NNE 15 17 8 9 1017.2 - 0.0
29/03:00am 12.1 9.4 10.2 88 1.0 NNE 15 17 8 9 1017.6 1017.6 0.0
29/02:30am 12.8 9.5 10.9 88 1.0 NNE 19 24 10 13 1017.7 - 0.0
29/02:00am 12.8 9.2 10.7 87 1.1 NNE 20 26 11 14 1017.9 - 0.0
29/01:00am 12.7 10.0 10.4 86 1.2 NNE 15 20 8 11 1018.6 - 0.0
29/12:30am 12.5 10.1 10.0 85 1.3 NNE 13 17 7 9 1018.9 - 0.0
29/12:00am 12.4 11.1 10.0 85 1.2 NNE 7 9 4 5 1019.6 1019.6 0.0
 
Date/Time
EDT
Temp
°C
App
Temp
°C
Dew
Point
Rel
Hum
%
Delta-T
°C
Wind Press
QNH
hPa
Press
MSL
hPa
Rain
since 9 am
mm
Dir
 
Spd
km/h
Gust
km/h
Spd
kts
Gust
kts
28/11:30pm 12.7 11.1 10.1 84 1.3 N 9 15 5 8 1019.8 - 0.0
28/11:00pm 12.7 9.2 10.1 84 1.3 N 19 22 10 12 1020.1 - 0.0
28/10:30pm 12.8 9.1 10.2 84 1.3 N 20 26 11 14 1020.1 - 0.0
28/10:00pm 12.9 9.4 10.1 83 1.4 NNE 19 24 10 13 1020.3 - 0.0
28/09:30pm 13.0 10.6 10.2 83 1.5 NNE 13 19 7 10 1020.4 - 0.0
28/09:00pm 12.8 10.7 9.6 81 1.6 NNE 11 13 6 7 1020.3 1020.3 0.0
28/08:30pm 13.3 12.8 9.5 78 1.9 SSE 2 6 1 3 1020.5 - 0.0
28/08:00pm 14.0 12.9 9.8 76 2.2 SSW 6 9 3 5 1020.5 - 0.0
28/07:30pm 14.2 12.9 9.8 75 2.3 SW 7 13 4 7 1020.3 - 0.0
28/07:00pm 14.4 11.5 9.8 74 2.4 SW 15 22 8 12 1020.2 - 0.0
28/06:30pm 15.3 11.7 10.5 73 2.5 SW 20 24 11 13 1020.0 - 0.0
28/06:00pm 15.5 11.9 10.5 72 2.6 SW 20 24 11 13 1019.9 1019.9 0.0
28/05:30pm 15.6 12.0 10.4 71 2.8 SW 20 24 11 13 1019.8 - 0.0
28/05:00pm 15.5 11.1 10.3 71 2.7 SW 24 30 13 16 1019.8 - 0.0
28/04:30pm 15.4 10.2 10.2 71 2.7 SW 28 32 15 17 1019.9 - 0.0
28/04:00pm 15.7 10.2 10.5 71 2.8 SW 30 35 16 19 1020.1 - 0.0
28/03:30pm 15.4 10.2 10.2 71 2.7 WSW 28 35 15 19 1020.3 - 0.0
28/03:00pm 15.5 12.0 10.3 71 2.7 W 19 32 10 17 1020.7 1020.7 0.0
28/02:30pm 16.2 14.2 10.3 68 3.1 ENE 11 19 6 10 1021.1 - 0.0
28/02:00pm 16.3 14.4 10.6 69 3.0 ENE 11 22 6 12 1021.3 - 0.0
28/01:30pm 17.2 16.3 11.2 68 3.3 NE 7 15 4 8 1021.7 - 0.0
28/01:00pm 15.2 13.2 10.0 71 2.7 E 11 22 6 12 1022.1 - 0.0
28/12:30pm 16.2 14.7 10.5 69 3.0 W 9 19 5 10 1022.4 - 0.0
28/12:00pm 15.4 13.0 10.2 71 2.7 E 13 17 7 9 1022.7 1022.7 0.0
28/11:30am 15.7 13.4 10.5 71 2.8 E 13 17 7 9 1022.6 - 0.0
28/11:00am 14.9 12.3 9.5 70 2.8 ENE 13 17 7 9 1022.6 - 0.0
28/10:30am 15.9 13.5 10.0 68 3.1 NE 13 19 7 10 1022.7 - 0.0
28/10:00am 15.1 13.0 9.7 70 2.8 ENE 11 13 6 7 1022.9 - 0.0
28/09:30am 15.4 13.0 10.2 71 2.7 ENE 13 15 7 8 1022.9 - 0.0
28/09:00am 13.7 10.0 9.4 75 2.2 WSW 19 26 10 14 1023.0 1023.0 0.0
28/08:30am 14.6 13.3 9.2 70 2.8 SE 6 11 3 6 1023.1 - 0.0
28/08:00am 15.0 13.7 9.8 71 2.7 E 7 11 4 6 1023.0 - 0.0
28/07:30am 14.4 12.4 8.8 69 2.8 NE 9 13 5 7 1023.0 - 0.0
28/07:00am 14.2 12.6 8.6 69 2.8 NE 7 9 4 5 1022.6 - 0.0
28/06:30am 12.7 11.7 8.8 77 2.0 N 4 11 2 6 1022.5 - 0.0
28/06:00am 11.0 8.4 7.7 80 1.6 N 11 13 6 7 1022.4 1022.4 0.0
28/05:30am 11.0 8.0 7.7 80 1.6 NW 13 19 7 10 1022.2 - 0.0
28/05:00am 11.2 8.3 8.1 81 1.5 NW 13 20 7 11 1022.2 - 0.0
28/04:30am 11.2 8.7 8.1 81 1.5 WNW 11 15 6 8 1022.1 - 0.0
28/04:00am 11.3 10.8 7.8 79 1.7 CALM 0 0 0 0 1022.0 - 0.0
28/03:30am 11.5 10.7 8.2 80 1.6 WSW 2 6 1 3 1022.1 - 0.0
28/03:00am 11.4 9.2 7.9 79 1.7 WNW 9 15 5 8 1022.1 1022.1 0.0
28/02:30am 11.6 9.5 8.1 79 1.7 NW 9 15 5 8 1022.3 - 0.0
28/02:00am 11.6 9.4 7.9 78 1.8 N 9 15 5 8 1022.4 - 0.0
28/01:30am 11.4 9.5 7.7 78 1.8 NNW 7 11 4 6 1022.7 - 0.0
28/01:00am 11.2 9.5 7.5 78 1.8 NNE 6 7 3 4 1023.1 - 0.0
28/12:30am 11.6 10.4 8.1 79 1.7 NE 4 7 2 4 1023.4 - 0.0
28/12:00am 11.4 9.6 7.9 79 1.7 N 7 9 4 5 1023.6 1023.6 0.0
 
Date/Time
EDT
Temp
°C
App
Temp
°C
Dew
Point
Rel
Hum
%
Delta-T
°C
Wind Press
QNH
hPa
Press
MSL
hPa
Rain
since 9 am
mm
Dir
 
Spd
km/h
Gust
km/h
Spd
kts
Gust
kts
27/11:30pm 11.7 8.5 8.6 81 1.5 WNW 15 24 8 13 1023.6 - 0.0
27/11:00pm 12.0 8.5 8.7 80 1.6 WNW 17 26 9 14 1023.8 - 0.0
27/10:30pm 12.1 7.6 8.6 79 1.7 WNW 22 30 12 16 1023.9 - 0.0
27/10:00pm 12.2 7.3 8.5 78 1.8 WNW 24 33 13 18 1023.8 - 0.0
27/09:30pm 12.2 7.3 8.3 77 1.9 WNW 24 32 13 17 1023.8 - 0.0
27/09:00pm 12.5 5.1 8.2 75 2.1 W 37 43 20 23 1023.4 1023.4 0.0
27/08:30pm 12.6 5.9 8.1 74 2.2 W 33 43 18 23 1023.2 - 0.0
27/08:12pm 12.8 5.7 8.1 73 2.3 W 35 54 19 29 1023.4 - 0.0
27/08:00pm 13.1 5.7 8.4 73 2.4 W 37 46 20 25 1023.2 - 0.0
27/07:30pm 13.8 6.8 8.6 71 2.6 W 35 46 19 25 1023.2 - 0.0
27/07:00pm 14.2 9.3 8.6 69 2.8 W 24 41 13 22 1023.0 - 0.0
27/06:30pm 14.4 8.1 8.8 69 2.8 W 32 43 17 23 1023.0 - 0.0
27/06:00pm 14.5 8.9 8.7 68 2.9 W 28 37 15 20 1022.8 1022.8 0.0
27/05:30pm 14.6 7.6 8.3 66 3.2 W 35 43 19 23 1022.9 - 0.0
27/05:00pm 15.0 8.6 8.7 66 3.2 W 32 44 17 24 1023.2 - 0.0
27/04:30pm 14.9 8.9 8.8 67 3.1 W 30 43 16 23 1023.3 - 0.0
27/04:00pm 14.2 7.5 8.2 67 3.0 W 33 44 18 24 1023.6 - 0.0
27/03:30pm 14.6 7.6 8.3 66 3.2 W 35 44 19 24 1023.7 - 0.0
27/03:00pm 13.7 6.4 7.2 65 3.2 WSW 35 50 19 27 1023.9 1023.9 0.0
27/02:30pm 14.0 7.2 7.5 65 3.2 WSW 33 46 18 25 1024.2 - 0.0
27/02:00pm 13.7 6.4 7.2 65 3.2 WSW 35 46 19 25 1024.5 - 0.0
27/01:30pm 13.4 5.3 7.0 65 3.1 WSW 39 48 21 26 1024.3 - 0.0
27/01:00pm 13.3 5.4 6.4 63 3.3 WSW 37 46 20 25 1024.5 - 0.0
27/12:30pm 13.4 6.1 7.0 65 3.1 WSW 35 46 19 25 1024.6 - 0.0
27/12:00pm 13.4 6.1 7.2 66 3.0 WSW 35 44 19 24 1024.7 1024.8 0.0
27/11:30am 13.3 5.6 7.3 67 2.9 WSW 37 46 20 25 1024.7 - 0.0
27/11:00am 13.6 5.5 7.2 65 3.1 WSW 39 48 21 26 1024.7 - 0.0
27/10:30am 13.2 6.3 7.4 68 2.8 WSW 33 43 18 23 1024.5 - 0.0
27/10:00am 13.3 7.0 7.3 67 2.9 WSW 30 41 16 22 1024.7 - 0.0
27/09:30am 12.9 5.5 6.9 67 2.9 WSW 35 43 19 23 1024.6 - 0.0
27/09:00am 12.7 5.9 7.0 68 2.7 WSW 32 41 17 22 1024.5 1024.5 2.2
27/08:30am 12.8 6.5 7.3 69 2.7 WSW 30 37 16 20 1024.5 - 2.2
27/08:00am 12.4 6.0 6.9 69 2.7 WSW 30 39 16 21 1024.0 - 2.2
27/07:30am 12.0 5.2 6.7 70 2.5 SW 32 46 17 25 1023.5 - 2.2
27/07:00am 12.1 5.1 7.0 71 2.5 SW 33 48 18 26 1023.2 - 2.2
27/06:31am 11.9 3.7 6.6 70 2.5 SW 39 57 21 31 1022.9 - 2.2
27/06:30am 11.8 3.2 6.5 70 2.5 SW 41 57 22 31 1022.9 - 2.2
27/06:00am 11.6 2.4 6.3 70 2.5 SW 44 52 24 28 1022.6 1022.6 2.2
27/05:30am 11.8 1.5 6.3 69 2.6 SW 50 57 27 31 1022.3 - 2.2
27/05:00am 11.6 2.0 6.1 69 2.6 WSW 46 57 25 31 1021.8 - 2.2
27/04:54am 11.8 4.0 6.5 70 2.5 WSW 37 56 20 30 1021.8 - 2.2
27/04:30am 11.7 1.7 6.0 68 2.7 WSW 48 59 26 32 1021.5 - 2.2
27/04:26am 11.8 2.5 6.1 68 2.7 WSW 44 57 24 31 1021.6 - 2.2
27/04:13am 11.9 3.7 6.4 69 2.6 SW 39 57 21 31 1021.6 - 2.2
27/04:00am 11.8 2.7 6.1 68 2.7 WSW 43 57 23 31 1021.6 - 2.2
27/03:30am 11.9 2.7 6.2 68 2.7 WSW 44 59 24 32 1021.4 - 2.2
27/03:00am 12.1 2.2 6.4 68 2.7 WSW 48 61 26 33 1021.6 1021.6 2.2
27/02:30am 12.2 1.8 6.0 66 2.9 WSW 50 57 27 31 1021.7 - 2.2
27/02:00am 12.2 1.9 6.3 67 2.8 SW 50 59 27 32 1021.9 - 2.2
27/01:30am 12.3 2.4 6.6 68 2.7 WSW 48 59 26 32 1021.9 - 2.2
27/01:00am 12.3 1.6 6.4 67 2.8 WSW 52 65 28 35 1021.9 - 2.2
27/12:39am 12.4 3.8 6.5 67 2.8 WSW 41 61 22 33 1022.0 - 2.2
27/12:30am 12.5 3.1 7.0 69 2.7 SW 46 59 25 32 1022.0 - 2.2
27/12:01am 12.5 4.0 7.0 69 2.7 W 41 59 22 32 1021.7 - 2.2
27/12:00am 12.6 4.5 7.1 69 2.7 W 39 56 21 30 1021.8 1021.8 2.2
 
Date/Time
EDT
Temp
°C
App
Temp
°C
Dew
Point
Rel
Hum
%
Delta-T
°C
Wind Press
QNH
hPa
Press
MSL
hPa
Rain
since 9 am
mm
Dir
 
Spd
km/h
Gust
km/h
Spd
kts
Gust
kts
26/11:50pm 12.4 3.2 6.5 67 2.8 WSW 44 63 24 34 1021.9 - 2.2
26/11:30pm 12.6 1.9 6.6 67 2.9 WSW 52 72 28 39 1021.5 - 2.2
26/11:28pm 12.6 3.0 6.4 66 3.0 WSW 46 72 25 39 1021.8 - 2.2
26/11:27pm 12.6 3.6 6.4 66 3.0 W 43 74 23 40 1021.9 - 2.2
26/11:21pm 12.5 -0.7 6.3 66 3.0 WSW 65 74 35 40 1021.1 - 2.2
26/11:14pm 12.6 3.2 7.3 70 2.6 WSW 46 67 25 36 1021.3 - 2.2
26/11:08pm 12.6 3.2 7.1 69 2.7 WSW 46 72 25 39 1021.6 - 2.2
26/11:00pm 12.5 -1.6 6.5 67 2.9 SW 70 80 38 43 1021.1 - 2.2
26/10:54pm 12.5 -2.3 6.8 68 2.7 SW 74 80 40 43 1020.8 - 2.2
26/10:34pm 12.8 2.3 7.3 69 2.7 WSW 52 72 28 39 1021.2 - 2.2
26/10:30pm 12.8 3.5 7.7 71 2.5 WSW 46 63 25 34 1021.4 - 2.2
26/10:00pm 12.7 2.6 7.2 69 2.7 WSW 50 69 27 37 1021.1 - 2.2
26/09:34pm 12.7 2.1 7.0 68 2.8 WSW 52 72 28 39 1020.7 - 2.2
26/09:30pm 12.6 1.7 7.1 69 2.7 WSW 54 70 29 38 1020.8 - 2.2
26/09:02pm 12.6 2.8 7.1 69 2.7 W 48 67 26 36 1020.7 - 2.2
26/09:00pm 12.8 2.7 7.3 69 2.7 W 50 67 27 36 1020.8 1020.8 2.2
26/08:46pm 12.8 1.6 7.7 71 2.5 WSW 56 74 30 40 1020.6 - 2.2

Other Formats:

Comma delimited format used in spreadsheet applications
http://www.bom.gov.au/fwo/IDV60801/IDV60801.94893.axf

JavaScript Object Notation format (JSON) in row-major order
http://www.bom.gov.au/fwo/IDV60801/IDV60801.94893.json